sensor_id;sensor_type;location;lat;lon;timestamp;temperature;humidity
39925;DHT22;25592;49.986;11.618;2023-09-07T00:01:41;20.60;86.10
39925;DHT22;25592;49.986;11.618;2023-09-07T00:04:27;20.50;86.10
39925;DHT22;25592;49.986;11.618;2023-09-07T00:07:12;20.50;86.10
39925;DHT22;25592;49.986;11.618;2023-09-07T00:09:58;20.50;86.40
39925;DHT22;25592;49.986;11.618;2023-09-07T00:12:44;20.40;86.40
39925;DHT22;25592;49.986;11.618;2023-09-07T00:15:30;20.30;86.50
39925;DHT22;25592;49.986;11.618;2023-09-07T00:18:16;20.40;87.10
39925;DHT22;25592;49.986;11.618;2023-09-07T00:21:04;20.40;86.60
39925;DHT22;25592;49.986;11.618;2023-09-07T00:23:50;20.30;86.90
39925;DHT22;25592;49.986;11.618;2023-09-07T00:26:35;20.20;87.20
39925;DHT22;25592;49.986;11.618;2023-09-07T00:29:21;20.20;86.80
39925;DHT22;25592;49.986;11.618;2023-09-07T00:32:07;20.10;86.60
39925;DHT22;25592;49.986;11.618;2023-09-07T00:34:52;20.10;87.10
39925;DHT22;25592;49.986;11.618;2023-09-07T00:37:38;20.00;87.70
39925;DHT22;25592;49.986;11.618;2023-09-07T00:40:23;19.90;87.70
39925;DHT22;25592;49.986;11.618;2023-09-07T00:43:11;19.90;87.30
39925;DHT22;25592;49.986;11.618;2023-09-07T00:45:56;19.90;86.70
39925;DHT22;25592;49.986;11.618;2023-09-07T00:48:42;19.90;87.30
39925;DHT22;25592;49.986;11.618;2023-09-07T00:51:28;19.80;87.10
39925;DHT22;25592;49.986;11.618;2023-09-07T00:54:14;19.70;87.80
39925;DHT22;25592;49.986;11.618;2023-09-07T00:57:00;19.70;88.00
39925;DHT22;25592;49.986;11.618;2023-09-07T00:59:45;19.70;87.60
39925;DHT22;25592;49.986;11.618;2023-09-07T01:02:31;19.70;88.10
39925;DHT22;25592;49.986;11.618;2023-09-07T01:05:16;19.60;87.70
39925;DHT22;25592;49.986;11.618;2023-09-07T01:08:12;19.60;87.60
39925;DHT22;25592;49.986;11.618;2023-09-07T01:11:00;19.50;87.50
39925;DHT22;25592;49.986;11.618;2023-09-07T01:13:45;19.50;87.50
39925;DHT22;25592;49.986;11.618;2023-09-07T01:16:31;19.50;87.40
39925;DHT22;25592;49.986;11.618;2023-09-07T01:19:21;19.50;87.60
39925;DHT22;25592;49.986;11.618;2023-09-07T01:22:08;19.40;88.30
39925;DHT22;25592;49.986;11.618;2023-09-07T01:24:55;19.30;88.20
39925;DHT22;25592;49.986;11.618;2023-09-07T01:27:40;19.30;87.80
39925;DHT22;25592;49.986;11.618;2023-09-07T01:30:29;19.30;88.20
39925;DHT22;25592;49.986;11.618;2023-09-07T01:33:14;19.30;87.60
39925;DHT22;25592;49.986;11.618;2023-09-07T01:36:00;19.30;87.60
39925;DHT22;25592;49.986;11.618;2023-09-07T01:38:46;19.30;87.70
39925;DHT22;25592;49.986;11.618;2023-09-07T01:41:31;19.20;88.10
39925;DHT22;25592;49.986;11.618;2023-09-07T01:44:17;19.10;88.70
39925;DHT22;25592;49.986;11.618;2023-09-07T01:47:02;19.10;88.80
39925;DHT22;25592;49.986;11.618;2023-09-07T01:49:47;19.10;88.20
39925;DHT22;25592;49.986;11.618;2023-09-07T01:52:33;19.00;88.30
39925;DHT22;25592;49.986;11.618;2023-09-07T01:55:19;19.10;88.10
39925;DHT22;25592;49.986;11.618;2023-09-07T01:58:04;19.00;88.10
39925;DHT22;25592;49.986;11.618;2023-09-07T02:00:52;19.00;88.30
39925;DHT22;25592;49.986;11.618;2023-09-07T02:03:37;19.00;88.30
39925;DHT22;25592;49.986;11.618;2023-09-07T02:06:22;19.00;88.20
39925;DHT22;25592;49.986;11.618;2023-09-07T02:09:08;18.90;89.10
39925;DHT22;25592;49.986;11.618;2023-09-07T02:11:53;18.90;88.80
39925;DHT22;25592;49.986;11.618;2023-09-07T02:14:39;18.90;88.80
39925;DHT22;25592;49.986;11.618;2023-09-07T02:17:25;18.80;88.80
39925;DHT22;25592;49.986;11.618;2023-09-07T02:20:11;18.80;88.60
39925;DHT22;25592;49.986;11.618;2023-09-07T02:22:56;18.80;88.70
39925;DHT22;25592;49.986;11.618;2023-09-07T02:25:42;18.80;88.30
39925;DHT22;25592;49.986;11.618;2023-09-07T02:28:27;18.70;88.60
39925;DHT22;25592;49.986;11.618;2023-09-07T02:31:13;18.70;89.10
39925;DHT22;25592;49.986;11.618;2023-09-07T02:33:59;18.60;88.70
39925;DHT22;25592;49.986;11.618;2023-09-07T02:36:44;18.60;88.60
39925;DHT22;25592;49.986;11.618;2023-09-07T02:39:29;18.50;88.80
39925;DHT22;25592;49.986;11.618;2023-09-07T02:42:15;18.50;88.70
39925;DHT22;25592;49.986;11.618;2023-09-07T02:45:01;18.50;89.20
39925;DHT22;25592;49.986;11.618;2023-09-07T02:47:46;18.40;89.30
39925;DHT22;25592;49.986;11.618;2023-09-07T02:50:33;18.40;90.00
39925;DHT22;25592;49.986;11.618;2023-09-07T02:53:19;18.30;89.40
39925;DHT22;25592;49.986;11.618;2023-09-07T02:56:05;18.30;89.40
39925;DHT22;25592;49.986;11.618;2023-09-07T02:58:50;18.30;89.00
39925;DHT22;25592;49.986;11.618;2023-09-07T03:01:38;18.30;89.40
39925;DHT22;25592;49.986;11.618;2023-09-07T03:04:24;18.30;89.80
39925;DHT22;25592;49.986;11.618;2023-09-07T03:07:10;18.20;90.10
39925;DHT22;25592;49.986;11.618;2023-09-07T03:09:55;18.10;89.80
39925;DHT22;25592;49.986;11.618;2023-09-07T03:12:41;18.10;89.70
39925;DHT22;25592;49.986;11.618;2023-09-07T03:15:27;18.10;89.60
39925;DHT22;25592;49.986;11.618;2023-09-07T03:18:12;18.00;90.10
39925;DHT22;25592;49.986;11.618;2023-09-07T03:21:00;18.00;89.80
39925;DHT22;25592;49.986;11.618;2023-09-07T03:23:45;18.00;90.10
39925;DHT22;25592;49.986;11.618;2023-09-07T03:26:31;18.00;90.10
39925;DHT22;25592;49.986;11.618;2023-09-07T03:29:16;17.90;89.90
39925;DHT22;25592;49.986;11.618;2023-09-07T03:32:02;17.90;90.00
39925;DHT22;25592;49.986;11.618;2023-09-07T03:34:48;17.80;90.20
39925;DHT22;25592;49.986;11.618;2023-09-07T03:37:33;17.80;90.00
39925;DHT22;25592;49.986;11.618;2023-09-07T03:40:18;17.70;90.20
39925;DHT22;25592;49.986;11.618;2023-09-07T03:43:04;17.70;90.00
39925;DHT22;25592;49.986;11.618;2023-09-07T03:45:50;17.80;89.70
39925;DHT22;25592;49.986;11.618;2023-09-07T03:48:37;17.70;90.00
39925;DHT22;25592;49.986;11.618;2023-09-07T03:51:26;17.70;90.10
39925;DHT22;25592;49.986;11.618;2023-09-07T03:54:14;17.80;89.90
39925;DHT22;25592;49.986;11.618;2023-09-07T03:57:05;17.70;90.50
39925;DHT22;25592;49.986;11.618;2023-09-07T03:59:56;17.70;90.00
39925;DHT22;25592;49.986;11.618;2023-09-07T04:02:42;17.60;90.70
39925;DHT22;25592;49.986;11.618;2023-09-07T04:05:36;17.60;90.70
39925;DHT22;25592;49.986;11.618;2023-09-07T04:08:25;17.50;90.60
39925;DHT22;25592;49.986;11.618;2023-09-07T04:11:22;17.60;90.50
39925;DHT22;25592;49.986;11.618;2023-09-07T04:14:08;17.50;90.40
39925;DHT22;25592;49.986;11.618;2023-09-07T04:16:54;17.50;90.10
39925;DHT22;25592;49.986;11.618;2023-09-07T04:19:39;17.40;90.20
39925;DHT22;25592;49.986;11.618;2023-09-07T04:22:24;17.40;90.20
39925;DHT22;25592;49.986;11.618;2023-09-07T04:25:10;17.40;90.30
39925;DHT22;25592;49.986;11.618;2023-09-07T04:27:55;17.30;90.20
39925;DHT22;25592;49.986;11.618;2023-09-07T04:30:42;17.30;90.30
39925;DHT22;25592;49.986;11.618;2023-09-07T04:33:30;17.20;90.30
39925;DHT22;25592;49.986;11.618;2023-09-07T04:36:15;17.20;90.30
39925;DHT22;25592;49.986;11.618;2023-09-07T04:39:01;17.20;90.10
39925;DHT22;25592;49.986;11.618;2023-09-07T04:41:49;17.20;90.60
39925;DHT22;25592;49.986;11.618;2023-09-07T04:44:34;17.20;90.40
39925;DHT22;25592;49.986;11.618;2023-09-07T04:47:19;17.20;90.30
39925;DHT22;25592;49.986;11.618;2023-09-07T04:50:06;17.10;90.20
39925;DHT22;25592;49.986;11.618;2023-09-07T04:52:53;17.10;90.40
39925;DHT22;25592;49.986;11.618;2023-09-07T04:55:38;17.10;90.20
39925;DHT22;25592;49.986;11.618;2023-09-07T04:58:24;17.00;90.60
39925;DHT22;25592;49.986;11.618;2023-09-07T05:01:10;17.10;90.30
39925;DHT22;25592;49.986;11.618;2023-09-07T05:03:56;17.10;90.60
39925;DHT22;25592;49.986;11.618;2023-09-07T05:06:41;17.00;90.50
39925;DHT22;25592;49.986;11.618;2023-09-07T05:09:28;17.00;90.70
39925;DHT22;25592;49.986;11.618;2023-09-07T05:12:15;16.90;90.60
39925;DHT22;25592;49.986;11.618;2023-09-07T05:15:05;16.90;90.50
39925;DHT22;25592;49.986;11.618;2023-09-07T05:17:52;16.90;90.50
39925;DHT22;25592;49.986;11.618;2023-09-07T05:20:38;17.00;90.70
39925;DHT22;25592;49.986;11.618;2023-09-07T05:23:23;16.90;90.90
39925;DHT22;25592;49.986;11.618;2023-09-07T05:26:11;17.00;90.90
39925;DHT22;25592;49.986;11.618;2023-09-07T05:28:56;17.00;90.90
39925;DHT22;25592;49.986;11.618;2023-09-07T05:31:42;17.00;91.10
39925;DHT22;25592;49.986;11.618;2023-09-07T05:34:27;16.90;91.00
39925;DHT22;25592;49.986;11.618;2023-09-07T05:37:13;16.90;91.20
39925;DHT22;25592;49.986;11.618;2023-09-07T05:39:58;17.00;91.70
39925;DHT22;25592;49.986;11.618;2023-09-07T05:42:44;16.90;91.60
39925;DHT22;25592;49.986;11.618;2023-09-07T05:45:30;16.90;91.90
39925;DHT22;25592;49.986;11.618;2023-09-07T05:48:16;17.00;92.00
39925;DHT22;25592;49.986;11.618;2023-09-07T05:51:02;17.00;92.00
39925;DHT22;25592;49.986;11.618;2023-09-07T05:53:54;17.10;92.00
39925;DHT22;25592;49.986;11.618;2023-09-07T05:56:40;17.10;92.30
39925;DHT22;25592;49.986;11.618;2023-09-07T05:59:26;17.10;92.40
39925;DHT22;25592;49.986;11.618;2023-09-07T06:02:11;17.10;92.40
39925;DHT22;25592;49.986;11.618;2023-09-07T06:04:57;17.00;92.80
39925;DHT22;25592;49.986;11.618;2023-09-07T06:07:43;17.10;92.50
39925;DHT22;25592;49.986;11.618;2023-09-07T06:10:29;17.00;92.70
39925;DHT22;25592;49.986;11.618;2023-09-07T06:13:15;17.10;92.90
39925;DHT22;25592;49.986;11.618;2023-09-07T06:16:00;17.50;92.90
39925;DHT22;25592;49.986;11.618;2023-09-07T06:18:46;17.90;92.40
39925;DHT22;25592;49.986;11.618;2023-09-07T06:21:32;18.40;92.00
39925;DHT22;25592;49.986;11.618;2023-09-07T06:24:17;18.50;91.80
39925;DHT22;25592;49.986;11.618;2023-09-07T06:27:03;18.60;92.00
39925;DHT22;25592;49.986;11.618;2023-09-07T06:29:49;18.60;91.80
39925;DHT22;25592;49.986;11.618;2023-09-07T06:32:36;18.70;91.80
39925;DHT22;25592;49.986;11.618;2023-09-07T06:35:21;18.80;91.60
39925;DHT22;25592;49.986;11.618;2023-09-07T06:38:07;19.00;91.50
39925;DHT22;25592;49.986;11.618;2023-09-07T06:40:52;19.10;91.40
39925;DHT22;25592;49.986;11.618;2023-09-07T06:43:38;19.20;91.40
39925;DHT22;25592;49.986;11.618;2023-09-07T06:46:23;19.20;91.70
39925;DHT22;25592;49.986;11.618;2023-09-07T06:49:09;19.10;91.70
39925;DHT22;25592;49.986;11.618;2023-09-07T06:51:54;19.20;91.70
39925;DHT22;25592;49.986;11.618;2023-09-07T06:54:40;19.20;91.70
39925;DHT22;25592;49.986;11.618;2023-09-07T06:57:25;19.30;91.30
39925;DHT22;25592;49.986;11.618;2023-09-07T07:00:11;19.20;91.60
39925;DHT22;25592;49.986;11.618;2023-09-07T07:02:57;19.30;91.60
39925;DHT22;25592;49.986;11.618;2023-09-07T07:05:44;19.20;91.90
39925;DHT22;25592;49.986;11.618;2023-09-07T07:08:29;19.10;92.00
39925;DHT22;25592;49.986;11.618;2023-09-07T07:11:15;19.30;92.10
39925;DHT22;25592;49.986;11.618;2023-09-07T07:14:00;19.30;91.80
39925;DHT22;25592;49.986;11.618;2023-09-07T07:16:45;19.50;91.70
39925;DHT22;25592;49.986;11.618;2023-09-07T07:19:31;19.30;93.00
39925;DHT22;25592;49.986;11.618;2023-09-07T07:22:17;19.50;92.00
39925;DHT22;25592;49.986;11.618;2023-09-07T07:25:05;19.50;92.80
39925;DHT22;25592;49.986;11.618;2023-09-07T07:27:51;19.50;93.10
39925;DHT22;25592;49.986;11.618;2023-09-07T07:30:37;19.50;92.90
39925;DHT22;25592;49.986;11.618;2023-09-07T07:33:23;19.70;93.00
39925;DHT22;25592;49.986;11.618;2023-09-07T07:36:09;19.80;92.80
39925;DHT22;25592;49.986;11.618;2023-09-07T07:38:54;20.00;92.80
39925;DHT22;25592;49.986;11.618;2023-09-07T07:41:40;20.20;92.70
39925;DHT22;25592;49.986;11.618;2023-09-07T07:44:28;20.20;92.60
39925;DHT22;25592;49.986;11.618;2023-09-07T07:47:13;20.30;92.20
39925;DHT22;25592;49.986;11.618;2023-09-07T07:49:59;20.50;92.00
39925;DHT22;25592;49.986;11.618;2023-09-07T07:52:44;20.70;92.10
39925;DHT22;25592;49.986;11.618;2023-09-07T07:55:30;20.80;92.10
39925;DHT22;25592;49.986;11.618;2023-09-07T07:58:15;20.90;91.70
39925;DHT22;25592;49.986;11.618;2023-09-07T08:01:01;20.90;91.20
39925;DHT22;25592;49.986;11.618;2023-09-07T08:03:47;20.90;92.20
39925;DHT22;25592;49.986;11.618;2023-09-07T08:06:32;21.00;91.30
39925;DHT22;25592;49.986;11.618;2023-09-07T08:09:18;21.00;91.20
39925;DHT22;25592;49.986;11.618;2023-09-07T08:12:04;21.20;91.30
39925;DHT22;25592;49.986;11.618;2023-09-07T08:14:50;21.40;90.90
39925;DHT22;25592;49.986;11.618;2023-09-07T08:17:35;21.70;90.30
39925;DHT22;25592;49.986;11.618;2023-09-07T08:20:21;21.80;90.10
39925;DHT22;25592;49.986;11.618;2023-09-07T08:23:06;21.90;90.50
39925;DHT22;25592;49.986;11.618;2023-09-07T08:25:53;22.20;88.60
39925;DHT22;25592;49.986;11.618;2023-09-07T08:28:39;22.30;89.10
39925;DHT22;25592;49.986;11.618;2023-09-07T08:31:25;22.40;88.40
39925;DHT22;25592;49.986;11.618;2023-09-07T08:34:11;22.60;88.90
39925;DHT22;25592;49.986;11.618;2023-09-07T08:36:56;22.70;86.80
39925;DHT22;25592;49.986;11.618;2023-09-07T08:39:44;23.00;87.60
39925;DHT22;25592;49.986;11.618;2023-09-07T08:42:29;23.00;84.60
39925;DHT22;25592;49.986;11.618;2023-09-07T08:45:17;23.20;85.90
39925;DHT22;25592;49.986;11.618;2023-09-07T08:48:04;23.30;86.50
39925;DHT22;25592;49.986;11.618;2023-09-07T08:50:49;23.50;84.40
39925;DHT22;25592;49.986;11.618;2023-09-07T08:53:37;23.60;85.20
39925;DHT22;25592;49.986;11.618;2023-09-07T08:56:24;23.80;84.70
39925;DHT22;25592;49.986;11.618;2023-09-07T08:59:11;24.10;83.60
39925;DHT22;25592;49.986;11.618;2023-09-07T09:01:57;24.30;81.10
39925;DHT22;25592;49.986;11.618;2023-09-07T09:04:44;24.30;81.50
39925;DHT22;25592;49.986;11.618;2023-09-07T09:07:30;24.40;82.50
39925;DHT22;25592;49.986;11.618;2023-09-07T09:10:17;24.70;81.70
39925;DHT22;25592;49.986;11.618;2023-09-07T09:13:03;24.60;79.10
39925;DHT22;25592;49.986;11.618;2023-09-07T09:15:49;25.00;80.10
39925;DHT22;25592;49.986;11.618;2023-09-07T09:18:34;25.40;82.50
39925;DHT22;25592;49.986;11.618;2023-09-07T09:21:22;25.70;79.00
39925;DHT22;25592;49.986;11.618;2023-09-07T09:24:10;25.70;76.70
39925;DHT22;25592;49.986;11.618;2023-09-07T09:26:56;25.80;76.80
39925;DHT22;25592;49.986;11.618;2023-09-07T09:29:41;25.70;76.20
39925;DHT22;25592;49.986;11.618;2023-09-07T09:32:27;26.00;75.50
39925;DHT22;25592;49.986;11.618;2023-09-07T09:35:12;26.20;73.40
39925;DHT22;25592;49.986;11.618;2023-09-07T09:38:01;26.20;73.30
39925;DHT22;25592;49.986;11.618;2023-09-07T09:40:50;26.40;73.50
39925;DHT22;25592;49.986;11.618;2023-09-07T09:43:35;26.60;72.90
39925;DHT22;25592;49.986;11.618;2023-09-07T09:46:22;26.80;72.30
39925;DHT22;25592;49.986;11.618;2023-09-07T09:49:08;26.90;71.50
39925;DHT22;25592;49.986;11.618;2023-09-07T09:51:53;27.10;71.40
39925;DHT22;25592;49.986;11.618;2023-09-07T09:54:40;27.00;71.10
39925;DHT22;25592;49.986;11.618;2023-09-07T09:57:25;27.20;71.40
39925;DHT22;25592;49.986;11.618;2023-09-07T10:00:16;27.30;70.60
39925;DHT22;25592;49.986;11.618;2023-09-07T10:06:12;27.60;70.00
39925;DHT22;25592;49.986;11.618;2023-09-07T10:09:05;27.70;68.60
39925;DHT22;25592;49.986;11.618;2023-09-07T10:11:53;27.90;70.00
39925;DHT22;25592;49.986;11.618;2023-09-07T10:14:40;28.20;69.20
39925;DHT22;25592;49.986;11.618;2023-09-07T10:17:26;28.40;70.20
39925;DHT22;25592;49.986;11.618;2023-09-07T10:20:11;28.60;69.50
39925;DHT22;25592;49.986;11.618;2023-09-07T10:23:04;28.70;68.40
39925;DHT22;25592;49.986;11.618;2023-09-07T10:25:50;28.60;67.60
39925;DHT22;25592;49.986;11.618;2023-09-07T10:28:36;29.00;67.50
39925;DHT22;25592;49.986;11.618;2023-09-07T10:31:25;29.00;66.00
39925;DHT22;25592;49.986;11.618;2023-09-07T10:34:35;29.20;66.90
39925;DHT22;25592;49.986;11.618;2023-09-07T10:37:28;29.70;66.10
39925;DHT22;25592;49.986;11.618;2023-09-07T10:40:21;29.90;65.40
39925;DHT22;25592;49.986;11.618;2023-09-07T10:43:07;29.90;64.90
39925;DHT22;25592;49.986;11.618;2023-09-07T10:45:54;30.10;64.10
39925;DHT22;25592;49.986;11.618;2023-09-07T10:48:42;30.20;62.70
39925;DHT22;25592;49.986;11.618;2023-09-07T10:51:27;29.80;62.20
39925;DHT22;25592;49.986;11.618;2023-09-07T10:54:17;29.80;62.80
39925;DHT22;25592;49.986;11.618;2023-09-07T10:57:10;29.50;61.60
39925;DHT22;25592;49.986;11.618;2023-09-07T10:59:55;29.50;62.60
39925;DHT22;25592;49.986;11.618;2023-09-07T11:02:42;29.80;61.80
39925;DHT22;25592;49.986;11.618;2023-09-07T11:05:28;30.00;63.10
39925;DHT22;25592;49.986;11.618;2023-09-07T11:08:13;30.60;63.10
39925;DHT22;25592;49.986;11.618;2023-09-07T11:11:00;30.80;61.70
39925;DHT22;25592;49.986;11.618;2023-09-07T11:13:47;30.70;59.90
39925;DHT22;25592;49.986;11.618;2023-09-07T11:16:33;30.50;60.10
39925;DHT22;25592;49.986;11.618;2023-09-07T11:19:21;30.60;60.70
39925;DHT22;25592;49.986;11.618;2023-09-07T11:22:11;30.90;60.10
39925;DHT22;25592;49.986;11.618;2023-09-07T11:24:56;31.10;60.60
39925;DHT22;25592;49.986;11.618;2023-09-07T11:27:42;31.40;59.40
39925;DHT22;25592;49.986;11.618;2023-09-07T11:30:27;31.40;60.10
39925;DHT22;25592;49.986;11.618;2023-09-07T11:33:15;31.30;59.10
39925;DHT22;25592;49.986;11.618;2023-09-07T11:36:01;31.50;59.00
39925;DHT22;25592;49.986;11.618;2023-09-07T11:38:46;31.40;58.90
39925;DHT22;25592;49.986;11.618;2023-09-07T11:41:31;31.70;58.30
39925;DHT22;25592;49.986;11.618;2023-09-07T11:44:17;31.70;58.50
39925;DHT22;25592;49.986;11.618;2023-09-07T11:47:02;32.10;60.10
39925;DHT22;25592;49.986;11.618;2023-09-07T11:49:50;32.30;58.40
39925;DHT22;25592;49.986;11.618;2023-09-07T11:52:38;32.30;56.90
39925;DHT22;25592;49.986;11.618;2023-09-07T11:55:24;32.70;61.30
39925;DHT22;25592;49.986;11.618;2023-09-07T11:58:09;32.60;58.00
39925;DHT22;25592;49.986;11.618;2023-09-07T12:00:55;32.80;57.60
39925;DHT22;25592;49.986;11.618;2023-09-07T12:03:41;32.80;56.20
39925;DHT22;25592;49.986;11.618;2023-09-07T12:06:26;32.90;56.40
39925;DHT22;25592;49.986;11.618;2023-09-07T12:09:12;33.00;57.40
39925;DHT22;25592;49.986;11.618;2023-09-07T12:11:58;33.20;56.50
39925;DHT22;25592;49.986;11.618;2023-09-07T12:14:43;33.00;55.80
39925;DHT22;25592;49.986;11.618;2023-09-07T12:17:29;32.80;54.50
39925;DHT22;25592;49.986;11.618;2023-09-07T12:20:15;33.10;55.40
39925;DHT22;25592;49.986;11.618;2023-09-07T12:23:02;33.60;55.10
39925;DHT22;25592;49.986;11.618;2023-09-07T12:25:47;33.60;56.00
39925;DHT22;25592;49.986;11.618;2023-09-07T12:28:36;34.00;56.30
39925;DHT22;25592;49.986;11.618;2023-09-07T12:31:21;33.50;54.30
39925;DHT22;25592;49.986;11.618;2023-09-07T12:34:07;33.40;54.70
39925;DHT22;25592;49.986;11.618;2023-09-07T12:36:53;33.20;53.70
39925;DHT22;25592;49.986;11.618;2023-09-07T12:39:38;33.20;53.80
39925;DHT22;25592;49.986;11.618;2023-09-07T12:42:24;33.00;52.30
39925;DHT22;25592;49.986;11.618;2023-09-07T12:45:10;33.00;53.70
39925;DHT22;25592;49.986;11.618;2023-09-07T12:47:56;33.40;53.10
39925;DHT22;25592;49.986;11.618;2023-09-07T12:50:41;33.60;53.00
39925;DHT22;25592;49.986;11.618;2023-09-07T12:53:28;33.70;52.70
39925;DHT22;25592;49.986;11.618;2023-09-07T12:56:15;34.00;54.10
39925;DHT22;25592;49.986;11.618;2023-09-07T12:59:00;34.40;55.50
39925;DHT22;25592;49.986;11.618;2023-09-07T13:01:48;34.60;54.60
39925;DHT22;25592;49.986;11.618;2023-09-07T13:04:35;34.60;53.90
39925;DHT22;25592;49.986;11.618;2023-09-07T13:07:24;34.30;54.60
39925;DHT22;25592;49.986;11.618;2023-09-07T13:10:11;34.40;53.70
39925;DHT22;25592;49.986;11.618;2023-09-07T13:12:56;34.50;54.00
39925;DHT22;25592;49.986;11.618;2023-09-07T13:15:42;34.80;52.70
39925;DHT22;25592;49.986;11.618;2023-09-07T13:18:27;34.90;53.50
39925;DHT22;25592;49.986;11.618;2023-09-07T13:21:13;34.80;52.70
39925;DHT22;25592;49.986;11.618;2023-09-07T13:23:59;35.00;52.90
39925;DHT22;25592;49.986;11.618;2023-09-07T13:26:46;34.90;53.30
39925;DHT22;25592;49.986;11.618;2023-09-07T13:29:33;34.80;52.80
39925;DHT22;25592;49.986;11.618;2023-09-07T13:32:18;34.50;51.90
39925;DHT22;25592;49.986;11.618;2023-09-07T13:35:05;34.10;52.30
39925;DHT22;25592;49.986;11.618;2023-09-07T13:37:51;34.00;53.10
39925;DHT22;25592;49.986;11.618;2023-09-07T13:40:36;34.10;52.80
39925;DHT22;25592;49.986;11.618;2023-09-07T13:43:22;34.00;53.00
39925;DHT22;25592;49.986;11.618;2023-09-07T13:46:07;34.20;54.10
39925;DHT22;25592;49.986;11.618;2023-09-07T13:48:53;34.70;53.80
39925;DHT22;25592;49.986;11.618;2023-09-07T13:51:42;34.90;53.70
39925;DHT22;25592;49.986;11.618;2023-09-07T13:54:27;35.00;53.80
39925;DHT22;25592;49.986;11.618;2023-09-07T13:57:15;35.10;53.30
39925;DHT22;25592;49.986;11.618;2023-09-07T14:00:02;35.20;53.80
39925;DHT22;25592;49.986;11.618;2023-09-07T14:02:47;34.90;53.50
39925;DHT22;25592;49.986;11.618;2023-09-07T14:05:33;34.90;53.00
39925;DHT22;25592;49.986;11.618;2023-09-07T14:08:18;34.50;53.40
39925;DHT22;25592;49.986;11.618;2023-09-07T14:11:08;34.80;53.50
39925;DHT22;25592;49.986;11.618;2023-09-07T14:13:53;35.00;53.50
39925;DHT22;25592;49.986;11.618;2023-09-07T14:16:40;35.00;53.50
39925;DHT22;25592;49.986;11.618;2023-09-07T14:19:26;34.80;54.20
39925;DHT22;25592;49.986;11.618;2023-09-07T14:22:16;34.70;53.80
39925;DHT22;25592;49.986;11.618;2023-09-07T14:25:01;34.30;53.40
39925;DHT22;25592;49.986;11.618;2023-09-07T14:27:47;34.20;54.20
39925;DHT22;25592;49.986;11.618;2023-09-07T14:30:33;33.90;53.20
39925;DHT22;25592;49.986;11.618;2023-09-07T14:33:18;33.70;54.60
39925;DHT22;25592;49.986;11.618;2023-09-07T14:36:07;33.80;54.00
39925;DHT22;25592;49.986;11.618;2023-09-07T14:38:52;33.90;54.90
39925;DHT22;25592;49.986;11.618;2023-09-07T14:41:38;33.90;54.70
39925;DHT22;25592;49.986;11.618;2023-09-07T14:44:25;33.90;55.30
39925;DHT22;25592;49.986;11.618;2023-09-07T14:47:10;34.10;54.00
39925;DHT22;25592;49.986;11.618;2023-09-07T14:49:56;34.00;54.20
39925;DHT22;25592;49.986;11.618;2023-09-07T14:52:43;33.80;54.30
39925;DHT22;25592;49.986;11.618;2023-09-07T14:55:32;33.80;54.70
39925;DHT22;25592;49.986;11.618;2023-09-07T14:58:17;33.70;54.80
39925;DHT22;25592;49.986;11.618;2023-09-07T15:01:03;34.00;55.70
39925;DHT22;25592;49.986;11.618;2023-09-07T15:03:48;34.10;54.10
39925;DHT22;25592;49.986;11.618;2023-09-07T15:06:34;34.30;55.00
39925;DHT22;25592;49.986;11.618;2023-09-07T15:09:20;34.10;54.40
39925;DHT22;25592;49.986;11.618;2023-09-07T15:12:05;33.90;54.10
39925;DHT22;25592;49.986;11.618;2023-09-07T15:14:51;33.90;54.40
39925;DHT22;25592;49.986;11.618;2023-09-07T15:17:45;33.80;54.50
39925;DHT22;25592;49.986;11.618;2023-09-07T15:20:31;33.80;54.30
39925;DHT22;25592;49.986;11.618;2023-09-07T15:23:17;33.70;54.40
39925;DHT22;25592;49.986;11.618;2023-09-07T15:26:02;33.60;55.10
39925;DHT22;25592;49.986;11.618;2023-09-07T15:28:49;33.70;55.80
39925;DHT22;25592;49.986;11.618;2023-09-07T15:31:34;33.70;55.80
39925;DHT22;25592;49.986;11.618;2023-09-07T15:34:20;33.80;55.00
39925;DHT22;25592;49.986;11.618;2023-09-07T15:37:05;33.80;56.00
39925;DHT22;25592;49.986;11.618;2023-09-07T15:39:51;33.80;54.50
39925;DHT22;25592;49.986;11.618;2023-09-07T15:42:36;33.70;55.70
39925;DHT22;25592;49.986;11.618;2023-09-07T15:45:22;33.70;55.90
39925;DHT22;25592;49.986;11.618;2023-09-07T15:48:07;33.50;56.40
39925;DHT22;25592;49.986;11.618;2023-09-07T15:50:53;33.50;55.80
39925;DHT22;25592;49.986;11.618;2023-09-07T15:53:38;33.40;56.30
39925;DHT22;25592;49.986;11.618;2023-09-07T15:56:24;33.50;56.90
39925;DHT22;25592;49.986;11.618;2023-09-07T15:59:09;33.30;56.90
39925;DHT22;25592;49.986;11.618;2023-09-07T16:01:56;33.30;57.40
39925;DHT22;25592;49.986;11.618;2023-09-07T16:04:41;33.10;57.70
39925;DHT22;25592;49.986;11.618;2023-09-07T16:07:27;33.10;57.00
39925;DHT22;25592;49.986;11.618;2023-09-07T16:10:12;33.00;56.70
39925;DHT22;25592;49.986;11.618;2023-09-07T16:12:58;32.80;57.00
39925;DHT22;25592;49.986;11.618;2023-09-07T16:15:43;32.90;58.00
39925;DHT22;25592;49.986;11.618;2023-09-07T16:18:29;32.90;57.90
39925;DHT22;25592;49.986;11.618;2023-09-07T16:21:15;32.90;58.20
39925;DHT22;25592;49.986;11.618;2023-09-07T16:24:04;32.90;58.10
39925;DHT22;25592;49.986;11.618;2023-09-07T16:26:50;32.70;58.70
39925;DHT22;25592;49.986;11.618;2023-09-07T16:29:35;32.70;58.80
39925;DHT22;25592;49.986;11.618;2023-09-07T16:32:21;32.70;58.80
39925;DHT22;25592;49.986;11.618;2023-09-07T16:35:07;32.50;58.70
39925;DHT22;25592;49.986;11.618;2023-09-07T16:37:53;32.40;59.10
39925;DHT22;25592;49.986;11.618;2023-09-07T16:40:38;32.30;59.30
39925;DHT22;25592;49.986;11.618;2023-09-07T16:43:24;32.10;59.70
39925;DHT22;25592;49.986;11.618;2023-09-07T16:46:09;32.00;60.30
39925;DHT22;25592;49.986;11.618;2023-09-07T16:48:55;32.00;61.10
39925;DHT22;25592;49.986;11.618;2023-09-07T16:51:40;31.90;61.50
39925;DHT22;25592;49.986;11.618;2023-09-07T16:54:26;31.90;61.40
39925;DHT22;25592;49.986;11.618;2023-09-07T16:57:11;31.90;62.10
39925;DHT22;25592;49.986;11.618;2023-09-07T16:59:57;31.70;62.40
39925;DHT22;25592;49.986;11.618;2023-09-07T17:02:42;31.60;62.40
39925;DHT22;25592;49.986;11.618;2023-09-07T17:05:27;31.30;62.30
39925;DHT22;25592;49.986;11.618;2023-09-07T17:08:13;31.30;63.00
39925;DHT22;25592;49.986;11.618;2023-09-07T17:11:02;31.10;63.60
39925;DHT22;25592;49.986;11.618;2023-09-07T17:13:48;31.00;63.90
39925;DHT22;25592;49.986;11.618;2023-09-07T17:16:46;30.70;65.00